Time;durP1;ratioP1;P1;durP2;ratioP2;P2;SDS_P1;SDS_P2;PMS_P1;PMS_P2;Temp;Humidity;BMP_temperature;BMP_pressure;BME280_temperature;BME280_humidity;BME280_pressure;Samples;Min_cycle;Max_cycle;Signal;HPM_P1;HPM_P2
2021/08/27 00:00:42;;;;;;;;;3.75;3.50;;;;;17.95;55.95;101135.88;5035381;28;46494;-85
2021/08/27 00:03:07;;;;;;;;;7.75;5.50;;;;;17.76;56.08;101102.28;5035627;28;45730;-85
2021/08/27 00:05:33;;;;;;;;;6.50;5.00;;;;;18.04;55.94;101156.22;5058084;28;45886;-84
2021/08/27 00:07:58;;;;;;;;;7.25;5.75;;;;;17.90;55.88;101130.16;5059741;28;45626;-81
2021/08/27 00:10:24;;;;;;;;;4.75;4.00;;;;;17.89;56.06;101120.53;5075377;28;47228;-84
2021/08/27 00:12:51;;;;;;;;;7.50;7.00;;;;;17.68;55.64;101086.28;5059934;28;46013;-84
2021/08/27 00:15:16;;;;;;;;;7.50;5.00;;;;;17.92;56.44;101134.31;5044030;28;45571;-84
2021/08/27 00:21:03;;;;;;;;;7.50;5.75;;;;;17.89;56.11;101131.97;5055966;28;46061;-86
2021/08/27 00:23:29;;;;;;;;;4.75;4.75;;;;;17.96;56.51;101150.81;5038239;28;45809;-85
2021/08/27 00:25:55;;;;;;;;;8.75;7.00;;;;;17.82;56.41;101136.16;5038183;28;45576;-85
2021/08/27 00:28:20;;;;;;;;;9.00;6.00;;;;;17.72;56.62;101100.91;5038397;28;47143;-85
2021/08/27 00:30:45;;;;;;;;;7.75;6.00;;;;;17.81;56.46;101123.91;5038634;28;47028;-86
2021/08/27 00:36:32;;;;;;;;;6.25;5.25;;;;;17.66;56.62;101097.97;5056051;28;45682;-85
2021/08/27 00:38:59;;;;;;;;;7.00;5.50;;;;;17.56;56.51;101082.91;5038109;28;47662;-85
2021/08/27 00:41:24;;;;;;;;;5.50;5.50;;;;;17.72;57.13;101110.66;5071494;28;47548;-84
2021/08/27 00:43:49;;;;;;;;;5.50;5.00;;;;;17.40;57.14;101056.16;5071457;28;46165;-86
2021/08/27 00:46:15;;;;;;;;;7.75;6.25;;;;;17.52;57.19;101083.34;5038093;28;45810;-85
2021/08/27 00:48:40;;;;;;;;;6.25;6.00;;;;;17.48;57.43;101084.59;5056190;28;46492;-85
2021/08/27 00:51:06;;;;;;;;;5.50;5.50;;;;;17.37;57.24;101068.88;5038003;28;47159;-84
2021/08/27 00:53:33;;;;;;;;;9.25;6.50;;;;;17.74;57.37;101122.81;5037907;28;45873;-85
2021/08/27 00:56:02;;;;;;;;;7.75;6.00;;;;;17.69;57.35;101118.91;5044284;28;46131;-84
2021/08/27 00:58:27;;;;;;;;;5.75;5.00;;;;;17.51;57.92;101087.78;5063101;28;45629;-86
2021/08/27 01:00:53;;;;;;;;;6.00;5.00;;;;;17.55;57.30;101097.13;5044802;28;47554;-85
2021/08/27 01:06:52;;;;;;;;;9.25;6.50;;;;;17.70;57.41;101115.28;5056808;28;45683;-83
2021/08/27 01:09:29;;;;;;;;;7.50;7.00;;;;;17.64;57.28;101110.56;5056759;28;45730;-84
2021/08/27 01:12:05;;;;;;;;;8.50;6.00;;;;;17.60;57.61;101097.56;5072873;28;48318;-83
2021/08/27 01:14:37;;;;;;;;;9.00;7.00;;;;;17.55;57.42;101081.22;5038977;28;46147;-84
2021/08/27 01:17:12;;;;;;;;;6.00;5.50;;;;;17.67;57.69;101107.59;5038400;28;45856;-84
2021/08/27 01:20:06;;;;;;;;;7.25;6.25;;;;;17.68;57.88;101109.28;5037831;28;47368;-85
2021/08/27 01:22:59;;;;;;;;;5.50;5.25;;;;;17.65;57.83;101110.41;5072323;28;47298;-85
2021/08/27 01:25:26;;;;;;;;;6.50;6.00;;;;;17.43;58.11;101068.31;5063694;28;45622;-85
2021/08/27 01:27:53;;;;;;;;;5.00;5.00;;;;;17.65;57.72;101107.78;5038106;28;45645;-85
2021/08/27 01:30:27;;;;;;;;;8.75;7.00;;;;;17.30;57.85;101052.69;5071860;28;46322;-85
2021/08/27 01:33:09;;;;;;;;;7.00;6.00;;;;;17.63;58.39;101114.16;5088136;28;47564;-84
2021/08/27 01:35:36;;;;;;;;;8.00;7.00;;;;;17.54;58.24;101092.81;5054835;28;45673;-83
2021/08/27 01:38:06;;;;;;;;;4.25;2.25;;;;;17.41;58.16;101086.97;5058062;28;45818;-84
2021/08/27 01:40:33;;;;;;;;;8.25;6.50;;;;;17.25;58.70;101064.69;5070763;28;45539;-83
2021/08/27 01:43:02;;;;;;;;;7.75;5.25;;;;;17.52;58.72;101109.84;5060820;28;46781;-84
2021/08/27 01:45:29;;;;;;;;;8.00;6.00;;;;;17.37;58.48;101101.50;5038713;28;46031;-84
2021/08/27 01:47:54;;;;;;;;;7.75;6.00;;;;;17.15;58.36;101062.06;5056301;28;45639;-84
2021/08/27 01:50:21;;;;;;;;;7.00;6.75;;;;;17.29;58.59;101087.25;5037619;28;48285;-85
2021/08/27 01:52:49;;;;;;;;;8.00;6.75;;;;;17.12;59.11;101068.44;5055092;28;45916;-86
2021/08/27 01:55:15;;;;;;;;;8.75;6.50;;;;;17.02;58.44;101056.19;5054885;28;45665;-85
2021/08/27 01:57:43;;;;;;;;;10.25;7.00;;;;;17.00;58.82;101058.16;5036992;28;46029;-85
2021/08/27 02:00:10;;;;;;;;;6.75;5.50;;;;;17.12;59.12;101081.69;5037140;28;47673;-84
2021/08/27 02:02:37;;;;;;;;;7.25;6.25;;;;;17.00;59.04;101056.34;5070994;28;48390;-84
2021/08/27 02:05:07;;;;;;;;;6.25;6.00;;;;;17.28;59.38;101102.31;5070657;28;45705;-84
2021/08/27 02:07:33;;;;;;;;;8.75;6.25;;;;;17.26;59.15;101114.03;5055463;28;45579;-84
2021/08/27 02:10:00;;;;;;;;;8.75;7.75;;;;;17.08;58.84;101087.41;5054812;28;45598;-85
2021/08/27 02:12:26;;;;;;;;;9.25;7.00;;;;;17.08;59.32;101092.69;5054781;28;46040;-85
2021/08/27 02:14:55;;;;;;;;;10.00;7.00;;;;;17.04;59.44;101072.78;5040894;28;45745;-85
2021/08/27 02:17:22;;;;;;;;;9.25;8.25;;;;;16.88;59.40;101053.97;5045359;28;45996;-84
2021/08/27 02:19:48;;;;;;;;;9.00;7.25;;;;;16.87;59.54;101053.13;5063345;28;45715;-84
2021/08/27 02:22:17;;;;;;;;;7.75;6.50;;;;;16.81;59.25;101053.69;5063274;28;46341;-85
2021/08/27 02:24:53;;;;;;;;;9.25;7.75;;;;;16.91;59.11;101058.97;5062551;28;45495;-84
2021/08/27 02:27:21;;;;;;;;;6.50;6.25;;;;;17.00;59.53;101093.41;5059346;28;45755;-84
2021/08/27 02:29:51;;;;;;;;;9.75;8.00;;;;;17.02;59.35;101085.31;5044392;28;47228;-84
2021/08/27 02:32:18;;;;;;;;;6.75;5.75;;;;;17.04;59.75;101093.97;5061781;28;45858;-85
2021/08/27 02:34:46;;;;;;;;;10.50;7.25;;;;;17.16;59.39;101108.75;5062114;28;45664;-85
2021/08/27 02:37:15;;;;;;;;;9.75;6.50;;;;;17.00;59.61;101095.22;5040338;28;45956;-85
2021/08/27 02:39:41;;;;;;;;;8.75;6.75;;;;;16.97;59.50;101087.53;5037132;28;48162;-85
2021/08/27 02:42:07;;;;;;;;;7.50;7.00;;;;;17.06;59.93;101103.41;5055898;28;45747;-85
2021/08/27 02:44:33;;;;;;;;;8.50;7.75;;;;;16.93;59.70;101081.69;5036274;28;45788;-84
2021/08/27 02:46:58;;;;;;;;;10.25;8.50;;;;;17.13;59.46;101115.13;5036492;28;45620;-84
2021/08/27 02:49:23;;;;;;;;;9.00;5.75;;;;;17.03;59.62;101098.41;5035562;28;47860;-84
2021/08/27 02:52:08;;;;;;;;;5.50;4.75;;;;;17.12;59.49;101109.97;5054978;28;46199;-84
2021/08/27 02:54:49;;;;;;;;;9.75;6.25;;;;;17.12;59.71;101118.75;5054093;28;45708;-84
2021/08/27 02:57:14;;;;;;;;;7.25;6.00;;;;;16.69;59.74;101052.97;5036372;28;45614;-83
2021/08/27 02:59:41;;;;;;;;;8.00;7.00;;;;;17.10;60.18;101126.03;5055042;28;45575;-83
2021/08/27 03:02:14;;;;;;;;;6.25;5.00;;;;;16.86;59.65;101083.22;5036454;28;47361;-85
2021/08/27 03:04:47;;;;;;;;;7.50;6.75;;;;;17.00;60.11;101106.66;5069485;28;45798;-84
2021/08/27 03:07:16;;;;;;;;;7.00;5.50;;;;;16.90;59.73;101086.41;5055388;28;45579;-85
2021/08/27 03:09:41;;;;;;;;;6.50;6.00;;;;;17.07;60.00;101113.03;5036905;28;48458;-85
2021/08/27 03:12:07;;;;;;;;;7.00;6.00;;;;;16.90;59.77;101086.41;5070240;28;47880;-85
2021/08/27 03:14:51;;;;;;;;;7.00;5.25;;;;;17.06;59.71;101114.00;5054583;28;45502;-84
2021/08/27 03:17:19;;;;;;;;;9.00;7.25;;;;;17.06;60.16;101118.47;5036761;28;45895;-85
2021/08/27 03:19:55;;;;;;;;;5.50;5.00;;;;;17.07;60.12;101112.19;5036188;28;48209;-85
2021/08/27 03:22:24;;;;;;;;;5.75;5.00;;;;;17.06;59.76;101113.16;5035617;28;48375;-86
2021/08/27 03:24:58;;;;;;;;;8.50;7.50;;;;;16.85;59.90;101075.41;5035180;28;45595;-85
2021/08/27 03:27:30;;;;;;;;;8.25;6.75;;;;;16.67;60.21;101046.16;5036412;28;46036;-84
2021/08/27 03:30:01;;;;;;;;;7.75;6.75;;;;;17.02;59.99;101112.63;5035281;28;47350;-84
2021/08/27 03:32:28;;;;;;;;;7.00;5.25;;;;;17.04;60.48;101112.50;5035513;28;46187;-84
2021/08/27 03:34:54;;;;;;;;;7.75;6.50;;;;;16.98;60.51;101100.66;5035789;28;45916;-84
2021/08/27 03:37:21;;;;;;;;;4.75;4.75;;;;;17.01;60.43;101110.94;5035855;28;45911;-85
2021/08/27 03:39:49;;;;;;;;;11.25;6.00;;;;;16.91;60.51;101098.66;5035637;28;48582;-85
2021/08/27 03:42:16;;;;;;;;;8.25;5.50;;;;;16.85;60.73;101078.88;5054125;28;45672;-84
2021/08/27 03:44:44;;;;;;;;;7.50;6.25;;;;;16.89;60.87;101082.13;5036130;28;46209;-84
2021/08/27 03:47:12;;;;;;;;;7.50;6.00;;;;;16.97;60.46;101087.53;5053866;28;45961;-85
2021/08/27 03:49:38;;;;;;;;;8.75;6.75;;;;;16.57;60.65;101032.03;5039599;28;47597;-84
2021/08/27 03:52:04;;;;;;;;;10.50;7.00;;;;;16.87;60.36;101082.25;5083530;28;46873;-83
2021/08/27 03:54:29;;;;;;;;;6.25;5.00;;;;;16.77;60.26;101062.88;5049333;28;45696;-84
2021/08/27 03:56:55;;;;;;;;;8.00;6.25;;;;;16.86;60.64;101069.97;5069628;28;45556;-84
2021/08/27 03:59:22;;;;;;;;;8.75;7.25;;;;;16.70;60.45;101054.63;5069618;28;45419;-84
2021/08/27 04:01:48;;;;;;;;;7.75;6.50;;;;;17.05;60.55;101096.47;5068262;28;45588;-84
2021/08/27 04:07:36;;;;;;;;;8.00;6.00;;;;;16.65;60.90;101033.06;5064874;28;45527;-84
2021/08/27 04:10:03;;;;;;;;;8.25;6.00;;;;;16.85;60.69;101068.31;5046542;28;47249;-84
2021/08/27 04:12:28;;;;;;;;;10.00;8.75;;;;;16.84;61.29;101071.09;5043172;28;47528;-85
2021/08/27 04:14:54;;;;;;;;;11.00;6.00;;;;;16.78;61.17;101061.91;5056942;28;45514;-84
2021/08/27 04:17:19;;;;;;;;;7.00;6.00;;;;;17.01;61.10;101095.06;5038945;28;45886;-84
2021/08/27 04:19:44;;;;;;;;;11.25;7.50;;;;;17.03;61.14;101102.88;5057153;28;45962;-85
2021/08/27 04:22:10;;;;;;;;;9.50;7.75;;;;;16.73;61.02;101050.91;5043896;28;48414;-84
2021/08/27 04:24:35;;;;;;;;;10.00;8.25;;;;;16.76;61.50;101048.81;5045865;28;45477;-84
2021/08/27 04:27:00;;;;;;;;;8.75;7.00;;;;;16.64;61.27;101027.88;5064484;28;45793;-84
2021/08/27 04:29:26;;;;;;;;;7.75;7.00;;;;;17.03;61.59;101087.00;5064407;28;45674;-83
2021/08/27 04:31:51;;;;;;;;;10.00;8.50;;;;;16.82;61.47;101060.66;5063868;28;46230;-83
2021/08/27 04:37:39;;;;;;;;;7.75;6.75;;;;;16.86;61.58;101071.78;5056669;28;45523;-85
2021/08/27 04:40:05;;;;;;;;;10.00;8.00;;;;;16.95;61.25;101079.72;5038174;28;47590;-84
2021/08/27 04:42:30;;;;;;;;;7.00;6.25;;;;;16.71;61.74;101040.44;5038180;28;47613;-84
2021/08/27 04:44:55;;;;;;;;;7.50;6.75;;;;;16.78;61.61;101046.03;5038318;28;45814;-83
2021/08/27 04:47:22;;;;;;;;;9.75;7.25;;;;;16.72;61.81;101049.22;5056683;28;45700;-84
2021/08/27 04:49:48;;;;;;;;;8.00;8.00;;;;;16.76;61.32;101055.91;5037673;28;48116;-83
2021/08/27 04:52:13;;;;;;;;;7.25;6.75;;;;;16.96;61.87;101089.34;5038652;28;46868;-84
2021/08/27 04:54:38;;;;;;;;;9.75;8.00;;;;;17.02;61.90;101096.75;5055997;28;46012;-82
2021/08/27 04:57:04;;;;;;;;;8.00;7.00;;;;;17.00;61.78;101100.50;5056575;28;45865;-82
2021/08/27 04:59:30;;;;;;;;;11.75;9.75;;;;;16.81;61.78;101064.25;5037585;28;48608;-84
2021/08/27 05:01:55;;;;;;;;;12.00;8.25;;;;;17.10;61.96;101114.59;5055290;28;46070;-83
2021/08/27 05:07:42;;;;;;;;;8.25;7.75;;;;;16.89;62.06;101088.25;5056535;28;45645;-83
2021/08/27 05:10:08;;;;;;;;;12.00;9.00;;;;;16.86;61.82;101085.03;5072189;28;47409;-83
2021/08/27 05:12:34;;;;;;;;;9.50;8.00;;;;;17.13;62.11;101131.03;5038086;28;46369;-84
2021/08/27 05:15:00;;;;;;;;;14.00;9.75;;;;;16.94;61.95;101093.97;5055929;28;45792;-83
2021/08/27 05:17:26;;;;;;;;;9.00;8.75;;;;;17.05;62.35;101122.13;5071775;28;45619;-84
2021/08/27 05:19:51;;;;;;;;;6.00;4.00;;;;;16.87;62.33;101084.06;5037661;28;47469;-83
2021/08/27 05:22:17;;;;;;;;;9.00;8.25;;;;;17.03;62.34;101116.94;5071508;28;47167;-83
2021/08/27 05:24:45;;;;;;;;;11.25;8.75;;;;;17.08;62.18;101133.25;5071029;28;46008;-83
2021/08/27 05:27:10;;;;;;;;;12.00;10.75;;;;;16.91;62.33;101102.16;5071108;28;45703;-85
2021/08/27 05:29:36;;;;;;;;;13.50;9.00;;;;;16.92;62.05;101109.13;5071903;28;47364;-84
2021/08/27 05:32:01;;;;;;;;;11.00;9.50;;;;;17.04;62.47;101138.97;5072733;28;47526;-84
2021/08/27 05:37:49;;;;;;;;;11.75;10.75;;;;;17.11;62.67;101142.75;5056712;28;45762;-84
2021/08/27 05:40:15;;;;;;;;;9.25;8.00;;;;;16.82;62.75;101104.81;5039196;28;47349;-84
2021/08/27 05:42:41;;;;;;;;;13.75;11.25;;;;;16.85;62.41;101110.66;5062005;28;46261;-84
2021/08/27 05:45:08;;;;;;;;;12.25;10.75;;;;;16.65;62.78;101088.63;5061641;28;45693;-84
2021/08/27 05:47:34;;;;;;;;;10.75;9.00;;;;;17.13;62.84;101154.03;5078981;28;45965;-84
2021/08/27 05:49:59;;;;;;;;;11.50;10.25;;;;;17.13;62.86;101160.16;5044585;28;47734;-84
2021/08/27 05:52:25;;;;;;;;;12.50;10.75;;;;;16.94;63.07;101116.94;5056792;28;45802;-83
2021/08/27 05:54:51;;;;;;;;;13.50;10.25;;;;;16.85;63.10;101120.38;5055712;28;45526;-85
2021/08/27 05:57:16;;;;;;;;;10.00;9.75;;;;;16.82;62.97;101102.16;5071299;28;45673;-85
2021/08/27 05:59:42;;;;;;;;;12.25;11.25;;;;;17.00;62.84;101133.13;5036967;28;49258;-85
2021/08/27 06:02:08;;;;;;;;;10.50;9.50;;;;;17.01;62.50;101126.81;5037393;28;47231;-83
2021/08/27 06:07:55;;;;;;;;;16.75;14.00;;;;;17.01;62.90;101145.34;5055229;28;45564;-83
2021/08/27 06:10:21;;;;;;;;;11.00;11.00;;;;;17.08;62.91;101150.94;5055843;28;46099;-84
2021/08/27 06:12:46;;;;;;;;;13.25;11.50;;;;;17.19;62.98;101161.41;5036346;28;47090;-84
2021/08/27 06:15:13;;;;;;;;;14.00;11.50;;;;;17.22;63.57;101168.25;5036491;28;45869;-85
2021/08/27 06:17:39;;;;;;;;;14.50;12.75;;;;;17.16;63.48;101159.91;5036316;28;45753;-85
2021/08/27 06:20:05;;;;;;;;;16.75;12.75;;;;;17.02;63.29;101141.75;5036250;28;48385;-85
2021/08/27 06:22:32;;;;;;;;;13.25;11.25;;;;;17.18;63.59;101160.56;5036583;28;47070;-84
2021/08/27 06:24:57;;;;;;;;;11.75;10.50;;;;;16.88;63.47;101120.13;5054276;28;45729;-84
2021/08/27 06:27:23;;;;;;;;;15.00;13.00;;;;;17.01;63.77;101147.16;5041887;28;45656;-84
2021/08/27 06:29:48;;;;;;;;;16.25;13.00;;;;;16.77;63.89;101110.50;5043925;28;48196;-86
2021/08/27 06:32:14;;;;;;;;;14.00;13.00;;;;;17.03;63.96;101159.31;5077552;28;46906;-84
2021/08/27 06:40:47;;;;;;;;;13.00;11.50;;;;;17.18;63.60;101180.91;5054359;28;45641;-85
2021/08/27 06:43:12;;;;;;;;;14.50;11.25;;;;;17.19;64.18;101188.75;5036289;28;48072;-84
2021/08/27 06:45:38;;;;;;;;;16.50;13.00;;;;;17.13;64.06;101184.00;5069470;28;45672;-85
2021/08/27 06:48:03;;;;;;;;;16.50;12.75;;;;;17.23;63.68;101201.69;5054487;28;45630;-85
2021/08/27 06:50:29;;;;;;;;;14.50;13.00;;;;;17.24;63.93;101204.22;5069981;28;47634;-84
2021/08/27 06:52:55;;;;;;;;;15.50;12.00;;;;;17.15;63.90;101181.22;5054489;28;45625;-83
2021/08/27 06:55:21;;;;;;;;;15.00;13.75;;;;;17.34;63.60;101206.88;5035774;28;46009;-83
2021/08/27 06:57:46;;;;;;;;;14.25;12.50;;;;;17.08;63.74;101164.19;5055017;28;45558;-85
2021/08/27 07:00:12;;;;;;;;;15.75;14.50;;;;;17.29;63.61;101183.44;5054962;28;46332;-86
2021/08/27 07:02:38;;;;;;;;;16.00;14.00;;;;;17.35;63.69;101193.50;5055139;28;46121;-85
2021/08/27 07:08:25;;;;;;;;;15.75;13.50;;;;;17.29;64.08;101186.09;5054763;28;45682;-84
2021/08/27 07:10:51;;;;;;;;;16.00;14.00;;;;;17.33;63.39;101187.47;5036695;28;50563;-84
2021/08/27 07:13:16;;;;;;;;;16.50;13.50;;;;;17.21;63.77;101167.41;5037337;28;47033;-85
2021/08/27 07:15:42;;;;;;;;;15.00;14.25;;;;;17.44;63.61;101195.31;5036531;28;46238;-84
2021/08/27 07:18:08;;;;;;;;;15.00;14.00;;;;;17.31;63.45;101175.38;5054591;28;45825;-85
2021/08/27 07:20:34;;;;;;;;;16.75;16.00;;;;;17.50;64.10;101209.81;5038442;28;48470;-84
2021/08/27 07:23:00;;;;;;;;;19.00;15.75;;;;;17.58;63.70;101223.22;5041965;28;46382;-85
2021/08/27 07:25:26;;;;;;;;;14.25;12.25;;;;;17.60;63.38;101214.16;5059617;28;45642;-85
2021/08/27 07:27:51;;;;;;;;;18.75;17.00;;;;;17.29;63.78;101170.19;5060133;28;45732;-85
2021/08/27 07:30:17;;;;;;;;;14.00;13.00;;;;;17.58;63.80;101217.91;5059756;28;46414;-84
2021/08/27 07:32:43;;;;;;;;;18.50;16.25;;;;;17.64;63.26;101221.84;5055196;28;45728;-84
2021/08/27 07:38:30;;;;;;;;;17.25;14.75;;;;;17.54;63.49;101200.63;5053610;28;45722;-85
2021/08/27 07:40:56;;;;;;;;;15.75;14.75;;;;;17.69;63.43;101232.88;5053317;28;45606;-84
2021/08/27 07:43:21;;;;;;;;;12.25;8.50;;;;;17.63;62.74;101215.72;5035372;28;48356;-84
2021/08/27 07:45:48;;;;;;;;;13.25;11.75;;;;;17.56;63.29;101214.56;5053448;28;46000;-85
2021/08/27 07:48:15;;;;;;;;;16.25;14.75;;;;;17.61;62.96;101199.94;5053886;28;45734;-84
2021/08/27 07:50:41;;;;;;;;;17.75;12.50;;;;;17.54;62.91;101188.19;5053294;28;45806;-85
2021/08/27 07:53:07;;;;;;;;;16.75;15.25;;;;;17.67;63.11;101201.19;5053735;28;46514;-85
2021/08/27 07:55:32;;;;;;;;;17.75;14.00;;;;;17.67;62.72;101198.53;5053489;28;45700;-84
2021/08/27 07:57:59;;;;;;;;;15.50;13.25;;;;;17.80;62.86;101212.38;5069090;28;46197;-84
2021/08/27 08:00:25;;;;;;;;;13.50;13.50;;;;;17.64;62.50;101174.16;5035554;28;48999;-83
2021/08/27 08:02:50;;;;;;;;;16.00;14.25;;;;;17.96;62.76;101225.03;5068513;28;47320;-85
2021/08/27 08:08:37;;;;;;;;;12.75;11.25;;;;;18.12;62.68;101230.59;5054061;28;45551;-86
2021/08/27 08:11:03;;;;;;;;;15.25;13.50;;;;;18.02;61.90;101211.22;5039278;28;47430;-85
2021/08/27 08:13:28;;;;;;;;;16.75;14.75;;;;;18.16;62.07;101223.19;5056020;28;45629;-85
2021/08/27 08:15:54;;;;;;;;;14.75;12.00;;;;;18.02;61.98;101206.75;5054618;28;45773;-85
2021/08/27 08:18:19;;;;;;;;;14.50;13.75;;;;;18.12;62.02;101214.69;5036496;28;45923;-85
2021/08/27 08:20:45;;;;;;;;;14.75;12.50;;;;;18.27;61.56;101233.63;5035395;28;47303;-84
2021/08/27 08:23:10;;;;;;;;;13.00;10.75;;;;;18.15;61.65;101213.56;5019050;28;48727;-84
2021/08/27 08:25:36;;;;;;;;;11.00;8.25;;;;;18.25;61.24;101228.47;5053683;28;45817;-84
2021/08/27 08:28:06;;;;;;;;;12.00;11.00;;;;;18.26;60.95;101229.31;5056427;28;45676;-84
2021/08/27 08:30:31;;;;;;;;;9.00;7.50;;;;;18.27;60.61;101229.16;5087511;28;45808;-84
2021/08/27 08:32:57;;;;;;;;;7.50;7.50;;;;;18.08;60.19;101186.78;5053206;28;47049;-85
2021/08/27 08:38:45;;;;;;;;;8.50;7.00;;;;;18.43;60.17;101241.84;5064550;28;45889;-84
2021/08/27 08:41:12;;;;;;;;;9.50;9.50;;;;;18.53;59.66;101245.28;5039619;28;48174;-85
2021/08/27 08:43:37;;;;;;;;;7.50;6.00;;;;;18.41;59.57;101231.34;5040896;28;46938;-86
2021/08/27 08:46:03;;;;;;;;;9.00;8.00;;;;;18.37;58.89;101210.56;5060263;28;45839;-85
2021/08/27 08:48:30;;;;;;;;;8.25;8.25;;;;;18.38;59.38;101217.56;5058537;28;45809;-85
2021/08/27 08:50:59;;;;;;;;;8.50;7.25;;;;;18.48;58.81;101220.16;5058747;28;45752;-85
2021/08/27 08:53:26;;;;;;;;;6.00;6.00;;;;;18.68;58.63;101251.00;5059458;28;46200;-85
2021/08/27 08:55:52;;;;;;;;;7.75;7.00;;;;;18.57;59.05;101227.31;5074381;28;45720;-84
2021/08/27 08:58:18;;;;;;;;;3.75;3.75;;;;;18.69;58.69;101242.06;5040156;28;45512;-85
2021/08/27 09:00:44;;;;;;;;;5.75;4.00;;;;;18.65;58.13;101230.06;5039604;28;48882;-85
2021/08/27 09:03:10;;;;;;;;;5.00;4.00;;;;;18.69;57.48;101245.53;5041954;28;47521;-84
2021/08/27 09:09:00;;;;;;;;;5.50;4.25;;;;;18.77;57.14;101229.75;5062713;28;45632;-85
2021/08/27 09:11:27;;;;;;;;;4.75;4.75;;;;;18.94;57.10;101257.34;5061841;28;46742;-84
2021/08/27 09:13:58;;;;;;;;;5.00;4.00;;;;;18.89;56.62;101246.31;5058962;28;45850;-83
2021/08/27 09:16:29;;;;;;;;;7.00;5.50;;;;;18.80;56.77;101218.81;5057355;28;45797;-85
2021/08/27 09:18:56;;;;;;;;;6.00;5.25;;;;;18.94;56.72;101236.09;5038699;28;45887;-85
2021/08/27 09:21:27;;;;;;;;;5.75;5.00;;;;;19.15;56.27;101252.59;5048483;28;46762;-84
2021/08/27 09:24:27;;;;;;;;;5.00;3.50;;;;;19.17;55.61;101258.59;5065126;28;45966;-84
2021/08/27 09:26:52;;;;;;;;;5.00;3.50;;;;;19.08;55.71;101251.50;5006334;28;45377;-84
2021/08/27 09:29:39;;;;;;;;;4.00;3.75;;;;;19.20;55.69;101268.94;5023231;28;45595;-87
2021/08/27 09:32:25;;;;;;;;;5.00;5.00;;;;;19.22;55.26;101268.75;5003339;28;47419;-83
2021/08/27 09:35:15;;;;;;;;;5.25;5.00;;;;;19.25;55.42;101263.16;5030286;28;47032;-83
2021/08/27 09:37:45;;;;;;;;;6.00;4.00;;;;;19.21;55.12;101252.00;5016792;28;45836;-83
2021/08/27 09:40:16;;;;;;;;;5.50;5.25;;;;;19.38;55.34;101263.63;5000701;28;45682;-84
2021/08/27 09:42:51;;;;;;;;;4.50;4.00;;;;;19.43;55.52;101266.69;5029364;28;47998;-83
2021/08/27 09:45:19;;;;;;;;;6.50;5.75;;;;;19.36;54.98;101239.03;5012967;28;46000;-83
2021/08/27 09:48:05;;;;;;;;;4.50;4.50;;;;;19.60;54.58;101271.22;5012592;28;45682;-84
2021/08/27 09:50:33;;;;;;;;;4.50;4.00;;;;;19.64;54.07;101266.44;5013120;28;45684;-83
2021/08/27 09:53:03;;;;;;;;;5.00;4.00;;;;;19.65;53.85;101282.22;4996151;28;47361;-86
2021/08/27 09:55:30;;;;;;;;;3.00;3.00;;;;;19.52;53.59;101246.38;4995929;28;47810;-84
2021/08/27 09:58:10;;;;;;;;;6.25;4.75;;;;;19.66;53.89;101267.09;4996650;28;46079;-85
2021/08/27 10:00:40;;;;;;;;;5.25;4.25;;;;;19.57;53.14;101252.06;5014863;28;45829;-86
2021/08/27 10:03:26;;;;;;;;;6.00;4.00;;;;;19.66;53.82;101259.97;5061284;28;45653;-83
2021/08/27 10:05:54;;;;;;;;;5.00;4.00;;;;;19.73;53.71;101265.53;5057486;28;47851;-87
2021/08/27 10:08:19;;;;;;;;;2.50;2.00;;;;;19.75;53.26;101260.91;5076249;28;45631;-83
2021/08/27 10:10:48;;;;;;;;;5.75;4.00;;;;;19.51;52.76;101232.25;5076100;28;45655;-86
2021/08/27 10:13:13;;;;;;;;;5.00;3.00;;;;;19.62;52.78;101245.31;5057252;28;48412;-87
2021/08/27 10:15:40;;;;;;;;;4.00;4.00;;;;;19.61;53.01;101233.00;5057272;28;48543;-85
2021/08/27 10:18:09;;;;;;;;;2.50;2.50;;;;;19.73;52.72;101240.75;5057030;28;45753;-85
2021/08/27 10:20:40;;;;;;;;;2.75;2.75;;;;;19.83;52.10;101258.31;5049617;28;45856;-86
2021/08/27 10:23:10;;;;;;;;;2.00;2.00;;;;;19.85;52.04;101242.19;5035535;28;46503;-87
2021/08/27 10:25:38;;;;;;;;;2.00;1.00;;;;;19.73;51.83;101230.13;5017559;28;47343;-84
2021/08/27 10:28:05;;;;;;;;;2.00;2.00;;;;;19.54;51.90;101204.53;5054612;28;45729;-86
2021/08/27 10:30:49;;;;;;;;;2.00;1.25;;;;;19.92;51.30;101252.06;5043157;28;45673;-85
2021/08/27 10:33:39;;;;;;;;;2.00;1.00;;;;;19.92;50.17;101249.38;5025720;28;47375;-85
2021/08/27 10:36:20;;;;;;;;;1.50;1.50;;;;;19.83;50.19;101237.03;5024957;28;47700;-84
2021/08/27 10:38:47;;;;;;;;;1.50;1.00;;;;;19.93;50.36;101250.22;5056040;28;45704;-83
2021/08/27 10:41:27;;;;;;;;;1.75;0.75;;;;;19.72;50.12;101215.16;5036343;28;45834;-84
2021/08/27 10:43:57;;;;;;;;;1.00;0.00;;;;;19.95;49.82;101251.75;5038962;28;46577;-84
2021/08/27 10:46:44;;;;;;;;;1.00;1.00;;;;;19.75;49.97;101218.34;5020077;28;47743;-85
2021/08/27 10:52:36;;;;;;;;;0.25;0.25;;;;;20.00;49.64;101243.31;5043487;28;45745;-86
2021/08/27 10:55:10;;;;;;;;;2.00;1.50;;;;;19.96;49.29;101241.97;5024453;28;47511;-85
2021/08/27 10:58:02;;;;;;;;;2.00;1.00;;;;;20.09;49.00;101237.06;5042248;28;45925;-85
2021/08/27 11:00:37;;;;;;;;;1.25;1.25;;;;;20.01;49.25;101205.94;5036240;28;45793;-83
2021/08/27 11:03:04;;;;;;;;;1.00;1.00;;;;;20.15;49.24;101228.47;5036461;28;46029;-85
2021/08/27 11:08:52;;;;;;;;;1.25;1.00;;;;;20.20;48.80;101209.34;5035316;28;45681;-85
2021/08/27 11:11:17;;;;;;;;;1.00;1.00;;;;;20.51;48.42;101250.53;5016626;28;45688;-87
2021/08/27 11:13:42;;;;;;;;;1.75;1.00;;;;;20.37;48.22;101206.69;5049814;28;45859;-87
2021/08/27 11:16:21;;;;;;;;;1.50;1.00;;;;;20.64;48.12;101250.09;5016266;28;48883;-85
2021/08/27 11:18:48;;;;;;;;;2.00;1.00;;;;;20.55;48.02;101217.28;5034018;28;46104;-85
2021/08/27 11:25:04;;;;;;;;;1.75;1.00;;;;;20.83;47.33;101245.38;5051946;28;45759;-84
2021/08/27 11:27:31;;;;;;;;;3.00;1.75;;;;;20.87;47.23;101245.88;5054417;28;45630;-85
2021/08/27 11:30:01;;;;;;;;;1.50;1.00;;;;;20.72;47.02;101224.34;5036549;28;47392;-85
2021/08/27 11:32:26;;;;;;;;;0.00;0.00;;;;;20.86;47.26;101249.53;5054200;28;45727;-85
2021/08/27 11:34:59;;;;;;;;;2.00;1.00;;;;;20.85;47.16;101234.53;5054805;28;45699;-85
2021/08/27 11:37:34;;;;;;;;;1.00;1.00;;;;;20.80;47.23;101220.88;5055538;28;46613;-86
2021/08/27 11:40:00;;;;;;;;;1.25;1.00;;;;;20.65;46.85;101191.34;5055264;28;46347;-85
2021/08/27 11:42:26;;;;;;;;;1.50;1.00;;;;;20.65;46.69;101191.34;5054191;28;45642;-84
2021/08/27 11:45:05;;;;;;;;;1.00;1.00;;;;;20.94;46.95;101229.06;5054585;28;45637;-86
2021/08/27 11:47:45;;;;;;;;;2.00;1.00;;;;;20.93;46.46;101207.94;5070122;28;48435;-84
2021/08/27 11:50:13;;;;;;;;;1.75;0.75;;;;;21.05;46.59;101224.47;5053690;28;46236;-86
2021/08/27 11:52:40;;;;;;;;;2.00;1.00;;;;;20.92;46.85;101184.97;5053927;28;45609;-84
2021/08/27 11:55:11;;;;;;;;;3.00;2.00;;;;;21.01;46.63;101196.47;5053806;28;45547;-85
2021/08/27 11:57:46;;;;;;;;;2.25;1.50;;;;;21.30;45.89;101235.06;5053511;28;45721;-84
2021/08/27 12:00:12;;;;;;;;;2.00;2.00;;;;;21.25;45.14;101213.41;5035374;28;48057;-85
2021/08/27 12:02:38;;;;;;;;;1.00;1.00;;;;;21.32;44.96;101222.38;5054199;28;45732;-84
2021/08/27 12:05:07;;;;;;;;;3.00;1.00;;;;;21.21;45.31;101205.91;5069626;28;45922;-85
2021/08/27 12:07:39;;;;;;;;;0.50;0.50;;;;;21.17;45.08;101204.53;5035880;28;48413;-85
2021/08/27 12:10:07;;;;;;;;;2.00;1.00;;;;;21.46;44.47;101228.94;5070791;28;46426;-84
2021/08/27 12:12:34;;;;;;;;;1.00;1.00;;;;;21.22;44.63;101189.72;5057629;28;45540;-85
2021/08/27 12:14:59;;;;;;;;;1.50;1.00;;;;;21.53;45.09;101237.13;5057926;28;45574;-87
2021/08/27 12:17:27;;;;;;;;;2.25;1.00;;;;;21.41;44.92;101207.25;5040251;28;47276;-86
2021/08/27 12:19:55;;;;;;;;;1.00;1.00;;;;;21.48;43.96;101229.63;5059941;28;45626;-85
2021/08/27 12:22:24;;;;;;;;;1.75;0.50;;;;;21.30;43.98;101194.25;5060630;28;45527;-85
2021/08/27 12:24:53;;;;;;;;;1.00;0.75;;;;;21.67;43.17;101252.47;5042686;28;45808;-85
2021/08/27 12:27:20;;;;;;;;;0.75;0.00;;;;;21.44;43.76;101206.09;5060790;28;45604;-85